createdAt,value
2022-10-19T00:00:28.450Z,80.78
2022-10-19T00:03:31.269Z,81.32
2022-10-19T00:06:35.589Z,79.39
2022-10-19T00:09:39.875Z,79.92
2022-10-19T00:12:42.577Z,79.54
2022-10-19T00:15:46.319Z,80.23
2022-10-19T00:18:49.017Z,79.88
2022-10-19T00:21:52.111Z,80.29
2022-10-19T00:24:57.612Z,80.20
2022-10-19T00:28:00.165Z,79.39
2022-10-19T00:31:04.867Z,79.67
2022-10-19T00:34:07.659Z,79.58
2022-10-19T00:37:10.260Z,79.52
2022-10-19T00:40:14.576Z,78.70
2022-10-19T00:43:18.909Z,78.78
2022-10-19T00:46:21.680Z,78.73
2022-10-19T00:49:27.981Z,78.63
2022-10-19T00:52:31.457Z,78.62
2022-10-19T00:55:36.124Z,78.49
2022-10-19T00:58:39.402Z,77.83
2022-10-19T01:01:45.282Z,76.77
2022-10-19T01:04:51.732Z,77.23
2022-10-19T01:07:55.300Z,77.57
2022-10-19T01:11:14.375Z,75.58
2022-10-19T01:14:34.763Z,75.91
2022-10-19T01:17:49.203Z,76.45
2022-10-19T01:21:09.427Z,77.42
2022-10-19T01:24:43.731Z,76.81
2022-10-19T01:28:02.414Z,77.15
2022-10-19T01:31:14.176Z,77.06
2022-10-19T01:34:24.239Z,77.97
2022-10-19T01:37:35.360Z,78.28
2022-10-19T01:40:46.096Z,78.78
2022-10-19T01:43:58.284Z,79.90
2022-10-19T01:47:07.878Z,79.25
2022-10-19T01:50:17.009Z,79.58
2022-10-19T01:53:21.718Z,78.87
2022-10-19T01:56:28.198Z,79.74
2022-10-19T01:59:32.786Z,79.90
2022-10-19T02:02:39.962Z,78.52
2022-10-19T02:05:44.049Z,78.80
2022-10-19T02:08:49.222Z,78.61
2022-10-19T02:11:57.249Z,77.74
2022-10-19T02:15:04.158Z,77.88
2022-10-19T02:18:09.297Z,77.76
2022-10-19T02:21:12.133Z,78.24
2022-10-19T02:24:14.652Z,77.26
2022-10-19T02:27:19.100Z,77.74
2022-10-19T02:30:22.438Z,77.58
2022-10-19T02:33:26.970Z,77.42
2022-10-19T02:36:29.904Z,77.81
2022-10-19T02:39:32.926Z,77.15
2022-10-19T02:42:40.733Z,77.01
2022-10-19T02:45:48.939Z,77.05
2022-10-19T02:48:53.357Z,77.72
2022-10-19T02:51:59.202Z,76.69
2022-10-19T02:55:01.739Z,77.18
2022-10-19T02:58:04.440Z,78.14
2022-10-19T03:01:07.309Z,77.20
2022-10-19T03:04:11.464Z,77.25
2022-10-19T03:07:16.375Z,77.83
2022-10-19T03:10:18.945Z,77.27
2022-10-19T03:13:21.646Z,75.45
2022-10-19T03:16:24.188Z,76.69
2022-10-19T03:19:28.366Z,76.12
2022-10-19T03:22:31.068Z,76.85
2022-10-19T03:25:33.620Z,77.26
2022-10-19T03:28:36.345Z,76.79
2022-10-19T03:31:38.914Z,77.73
2022-10-19T03:34:42.943Z,77.82
2022-10-19T03:37:45.719Z,76.44
2022-10-19T03:40:48.270Z,76.62
2022-10-19T03:43:51.020Z,78.30
2022-10-19T03:46:53.904Z,77.63
2022-10-19T03:49:57.855Z,77.20
2022-10-19T03:53:00.479Z,77.20
2022-10-19T03:56:05.094Z,77.58
2022-10-19T03:59:08.506Z,77.43
2022-10-19T04:02:11.069Z,77.40
2022-10-19T04:05:15.118Z,77.49
2022-10-19T04:08:17.850Z,76.60
2022-10-19T04:11:23.308Z,77.04
2022-10-19T04:14:32.149Z,76.69
2022-10-19T04:17:35.785Z,76.87
2022-10-19T04:20:42.846Z,77.20
2022-10-19T04:23:45.524Z,76.49
2022-10-19T04:26:50.122Z,76.57
2022-10-19T04:29:52.794Z,76.30
2022-10-19T04:32:55.328Z,76.29
2022-10-19T04:36:00.911Z,75.33
2022-10-19T04:39:03.695Z,76.38
2022-10-19T04:42:06.283Z,76.41
2022-10-19T04:45:09.722Z,75.39
2022-10-19T04:48:15.004Z,75.84
2022-10-19T04:51:19.939Z,76.02
2022-10-19T04:54:22.736Z,75.71
2022-10-19T04:57:25.287Z,75.32
2022-10-19T05:00:27.983Z,74.71
2022-10-19T05:03:30.683Z,75.11
2022-10-19T05:06:34.635Z,75.36
2022-10-19T05:09:40.408Z,75.24
2022-10-19T05:12:42.996Z,75.53
2022-10-19T05:15:45.608Z,75.72
2022-10-19T05:18:50.150Z,75.87
2022-10-19T05:21:54.092Z,75.19
2022-10-19T05:24:58.176Z,76.15
2022-10-19T05:28:00.942Z,73.60
2022-10-19T05:31:08.831Z,75.62
2022-10-19T05:34:11.467Z,75.87
2022-10-19T05:37:17.210Z,76.09
2022-10-19T05:40:19.853Z,75.50
2022-10-19T05:43:22.435Z,75.46
2022-10-19T05:46:26.613Z,75.83
2022-10-19T05:49:29.453Z,76.55
2022-10-19T05:52:33.393Z,76.07
2022-10-19T05:55:36.704Z,76.45
2022-10-19T05:58:39.491Z,75.22
2022-10-19T06:01:42.283Z,75.11
2022-10-19T06:04:44.994Z,76.69
2022-10-19T06:07:48.953Z,75.25
2022-10-19T06:10:51.859Z,75.66
2022-10-19T06:13:56.308Z,75.23
2022-10-19T06:16:58.903Z,76.12
2022-10-19T06:20:01.439Z,77.13
2022-10-19T06:23:06.200Z,77.51
2022-10-19T06:26:11.000Z,77.12
2022-10-19T06:29:13.596Z,77.20
2022-10-19T06:32:16.525Z,77.33
2022-10-19T06:35:19.461Z,76.42
2022-10-19T06:38:23.399Z,77.27
2022-10-19T06:41:26.100Z,77.56
2022-10-19T06:44:28.693Z,76.25
2022-10-19T06:47:33.277Z,76.83
2022-10-19T06:50:36.479Z,77.01
2022-10-19T06:53:40.393Z,76.56
2022-10-19T06:56:42.983Z,76.61
2022-10-19T06:59:46.530Z,76.86
2022-10-19T07:02:50.682Z,76.14
2022-10-19T07:05:57.154Z,76.69
2022-10-19T07:09:02.726Z,75.58
2022-10-19T07:12:05.478Z,76.21
2022-10-19T07:15:08.938Z,75.44
2022-10-19T07:18:11.520Z,75.73
2022-10-19T07:21:16.042Z,75.34
2022-10-19T07:24:20.783Z,75.26
2022-10-19T07:27:23.395Z,74.04
2022-10-19T07:30:26.011Z,74.43
2022-10-19T07:33:28.912Z,73.77
2022-10-19T07:36:33.242Z,72.32
2022-10-19T07:39:37.669Z,72.09
2022-10-19T07:42:40.376Z,73.24
2022-10-19T07:45:42.947Z,72.87
2022-10-19T07:48:46.211Z,72.46
2022-10-19T07:51:48.885Z,71.83
2022-10-19T07:54:53.397Z,72.15
2022-10-19T07:57:56.243Z,73.35
2022-10-19T08:01:01.305Z,72.86
2022-10-19T08:07:26.575Z,72.30
2022-10-19T08:10:30.549Z,72.59
2022-10-19T08:13:33.107Z,71.66
2022-10-19T08:16:40.186Z,71.65
2022-10-19T08:19:43.583Z,71.82
2022-10-19T08:22:46.816Z,73.06
2022-10-19T08:25:51.089Z,71.45
2022-10-19T08:28:53.662Z,71.71
2022-10-19T08:31:56.334Z,71.45
2022-10-19T08:34:58.922Z,70.84
2022-10-19T08:38:02.861Z,70.82
2022-10-19T08:41:22.478Z,70.24
2022-10-19T08:44:41.587Z,69.89
2022-10-19T08:47:59.174Z,69.11
2022-10-19T08:51:02.712Z,67.96
2022-10-19T08:54:15.687Z,69.36
2022-10-19T08:57:31.147Z,67.72
2022-10-19T09:00:42.939Z,68.18
2022-10-19T09:03:55.558Z,67.99
2022-10-19T09:07:14.861Z,67.21
2022-10-19T09:10:22.608Z,65.61
2022-10-19T09:13:47.108Z,66.01
2022-10-19T09:17:07.625Z,65.22
2022-10-19T09:20:17.340Z,64.70
2022-10-19T09:23:26.170Z,64.70
2022-10-19T09:26:31.756Z,63.78
2022-10-19T09:29:41.246Z,62.70
2022-10-19T09:32:44.103Z,64.25
2022-10-19T09:35:48.184Z,63.75
2022-10-19T09:38:52.033Z,64.20
2022-10-19T09:41:56.496Z,65.52
2022-10-19T09:45:03.409Z,65.39
2022-10-19T09:48:18.076Z,62.35
2022-10-19T09:51:22.005Z,62.98
2022-10-19T09:54:28.115Z,62.52
2022-10-19T09:57:31.071Z,60.77
2022-10-19T10:00:38.880Z,57.10
2022-10-19T10:03:43.373Z,54.94
2022-10-19T10:06:49.137Z,57.02
2022-10-19T10:09:53.985Z,57.06
2022-10-19T10:12:58.752Z,58.35
2022-10-19T10:16:04.941Z,57.45
2022-10-19T10:19:09.971Z,53.54
2022-10-19T10:22:26.116Z,53.23
2022-10-19T10:25:31.144Z,53.02
2022-10-19T10:28:33.837Z,49.60
2022-10-19T10:31:37.935Z,51.76
2022-10-19T10:34:51.824Z,51.66
2022-10-19T10:38:07.188Z,53.26
2022-10-19T10:41:15.172Z,53.67
2022-10-19T10:44:22.165Z,53.08
2022-10-19T10:47:27.475Z,52.96
2022-10-19T10:50:35.715Z,52.14
2022-10-19T10:53:40.467Z,50.34
2022-10-19T10:56:44.387Z,50.76
2022-10-19T10:59:56.370Z,52.36
2022-10-19T11:03:08.977Z,52.63
2022-10-19T11:06:13.497Z,50.99
2022-10-19T11:09:25.536Z,48.75
2022-10-19T11:12:35.467Z,46.16
2022-10-19T11:15:45.527Z,43.98
2022-10-19T11:18:54.601Z,46.06
2022-10-19T11:22:03.197Z,45.82
2022-10-19T11:25:24.907Z,48.52
2022-10-19T11:28:46.390Z,49.09
2022-10-19T11:31:52.457Z,49.22
2022-10-19T11:35:12.407Z,49.17
2022-10-19T11:38:32.297Z,48.87
2022-10-19T11:41:39.750Z,47.12
2022-10-19T11:44:56.105Z,45.55
2022-10-19T11:48:15.945Z,45.61
2022-10-19T11:51:26.632Z,44.91
2022-10-19T11:54:43.987Z,47.03
2022-10-19T11:57:52.478Z,46.61
2022-10-19T12:01:09.180Z,47.10
2022-10-19T12:04:24.832Z,48.21
2022-10-19T12:07:45.269Z,46.95
2022-10-19T12:10:57.751Z,45.88
2022-10-19T12:14:04.128Z,45.26
2022-10-19T12:17:10.391Z,42.25
2022-10-19T12:20:22.055Z,43.40
2022-10-19T12:23:33.097Z,42.06
2022-10-19T12:26:37.737Z,41.76
2022-10-19T12:29:44.957Z,44.05
2022-10-19T12:33:02.879Z,46.34
2022-10-19T12:36:17.095Z,46.72
2022-10-19T12:39:26.383Z,47.35
2022-10-19T12:42:32.875Z,48.26
2022-10-19T12:45:39.331Z,46.41
2022-10-19T12:48:41.891Z,47.36
2022-10-19T12:51:47.959Z,46.87
2022-10-19T12:54:52.086Z,46.32
2022-10-19T12:58:01.528Z,44.10
2022-10-19T13:01:06.882Z,45.50
2022-10-19T13:04:12.964Z,46.02
2022-10-19T13:07:19.245Z,46.67
2022-10-19T13:10:26.734Z,47.28
2022-10-19T13:13:54.438Z,46.73
2022-10-19T13:16:59.405Z,46.98
2022-10-19T13:20:35.556Z,48.10
2022-10-19T13:23:41.970Z,46.54
2022-10-19T13:26:46.284Z,47.34
2022-10-19T13:29:48.858Z,47.51
2022-10-19T13:32:51.598Z,46.73
2022-10-19T13:36:07.931Z,47.22
2022-10-19T13:39:16.154Z,47.01
2022-10-19T13:42:28.881Z,47.73
2022-10-19T13:45:31.674Z,47.63
2022-10-19T13:48:53.281Z,49.52
2022-10-19T13:52:23.037Z,50.25
2022-10-19T13:55:52.135Z,50.85
2022-10-19T13:59:32.777Z,50.47
2022-10-19T14:02:59.447Z,51.19
2022-10-19T14:06:23.539Z,51.23
2022-10-19T14:09:49.036Z,50.21
2022-10-19T14:12:52.866Z,50.91
2022-10-19T14:16:00.558Z,51.40
2022-10-19T14:19:03.267Z,50.38
2022-10-19T14:22:20.392Z,51.32
2022-10-19T14:25:25.458Z,50.95
2022-10-19T14:28:29.560Z,51.53
2022-10-19T14:31:37.086Z,51.10
2022-10-19T14:34:41.540Z,51.94
2022-10-19T14:37:44.906Z,52.66
2022-10-19T14:40:47.535Z,52.27
2022-10-19T14:43:50.271Z,51.86
2022-10-19T14:46:54.874Z,53.02
2022-10-19T14:49:58.358Z,53.46
2022-10-19T14:53:09.943Z,52.97
2022-10-19T14:56:19.688Z,52.52
2022-10-19T14:59:27.924Z,52.83
2022-10-19T15:02:36.578Z,54.46
2022-10-19T15:05:47.212Z,54.18
2022-10-19T15:12:06.026Z,52.54
2022-10-19T15:15:11.276Z,53.79
2022-10-19T15:18:43.388Z,54.74
2022-10-19T15:21:40.593Z,55.77
2022-10-19T15:25:00.697Z,56.06
2022-10-19T15:28:33.919Z,56.64
2022-10-19T15:31:38.804Z,56.86
2022-10-19T15:34:44.925Z,58.58
2022-10-19T15:37:50.593Z,58.80
2022-10-19T15:40:58.309Z,59.49
2022-10-19T15:44:04.206Z,60.17
2022-10-19T15:47:23.553Z,60.47
2022-10-19T15:50:38.109Z,60.62
2022-10-19T15:53:40.795Z,61.21
2022-10-19T15:56:44.132Z,60.70
2022-10-19T15:59:48.659Z,61.83
2022-10-19T16:02:51.382Z,62.04
2022-10-19T16:05:56.149Z,62.45
2022-10-19T16:08:59.250Z,63.21
2022-10-19T16:12:01.900Z,63.23
2022-10-19T16:15:04.920Z,63.18
2022-10-19T16:18:07.581Z,64.22
2022-10-19T16:21:11.565Z,64.14
2022-10-19T16:24:14.147Z,64.24
2022-10-19T16:27:17.169Z,64.64
2022-10-19T16:30:20.163Z,64.93
2022-10-19T16:33:23.472Z,65.79
2022-10-19T16:36:27.555Z,65.68
2022-10-19T16:39:30.326Z,65.96
2022-10-19T16:42:34.953Z,65.64
2022-10-19T16:45:37.787Z,66.25
2022-10-19T16:48:40.388Z,66.31
2022-10-19T16:51:44.346Z,66.55
2022-10-19T16:54:47.055Z,66.69
2022-10-19T16:57:49.594Z,67.25
2022-10-19T17:00:52.305Z,67.93
2022-10-19T17:03:55.747Z,67.85
2022-10-19T17:06:59.727Z,68.21
2022-10-19T17:10:02.472Z,67.94
2022-10-19T17:13:05.151Z,68.31
2022-10-19T17:16:08.576Z,68.23
2022-10-19T17:19:11.989Z,69.06
2022-10-19T17:22:16.043Z,68.52
2022-10-19T17:25:18.724Z,68.19
2022-10-19T17:28:24.119Z,69.62
2022-10-19T17:31:29.902Z,69.54
2022-10-19T17:34:32.803Z,69.59
2022-10-19T17:37:37.101Z,69.24
2022-10-19T17:40:39.970Z,68.83
2022-10-19T17:43:44.845Z,69.46
2022-10-19T17:46:47.619Z,69.27
2022-10-19T17:49:50.312Z,69.60
2022-10-19T17:52:54.233Z,70.42
2022-10-19T17:55:57.230Z,69.90
2022-10-19T17:59:02.407Z,70.64
2022-10-19T18:02:07.439Z,69.89
2022-10-19T18:05:10.499Z,70.39
2022-10-19T18:08:14.391Z,70.33
2022-10-19T18:11:19.684Z,70.04
2022-10-19T18:14:22.391Z,70.19
2022-10-19T18:17:27.668Z,71.21
2022-10-19T18:20:30.688Z,70.54
2022-10-19T18:23:34.643Z,70.83
2022-10-19T18:26:37.320Z,70.83
2022-10-19T18:29:39.861Z,70.98
2022-10-19T18:32:42.432Z,71.31
2022-10-19T18:35:44.981Z,70.18
2022-10-19T18:38:52.749Z,71.08
2022-10-19T18:41:55.575Z,71.30
2022-10-19T18:44:58.322Z,71.50
2022-10-19T18:48:00.919Z,71.87
2022-10-19T18:51:05.973Z,71.02
2022-10-19T18:54:11.931Z,70.91
2022-10-19T18:57:14.613Z,71.12
2022-10-19T19:00:17.281Z,71.21
2022-10-19T19:03:20.542Z,71.39
2022-10-19T19:06:25.428Z,71.16
2022-10-19T19:09:29.308Z,71.05
2022-10-19T19:12:32.221Z,71.50
2022-10-19T19:15:34.790Z,71.44
2022-10-19T19:18:37.509Z,71.31
2022-10-19T19:21:43.650Z,71.46
2022-10-19T19:24:50.329Z,70.63
2022-10-19T19:27:52.912Z,71.62
2022-10-19T19:30:55.479Z,71.09
2022-10-19T19:34:01.022Z,71.97
2022-10-19T19:37:07.316Z,71.70
2022-10-19T19:40:14.465Z,71.41
2022-10-19T19:43:17.716Z,71.70
2022-10-19T19:46:20.763Z,72.40
2022-10-19T19:49:24.975Z,72.44
2022-10-19T19:52:27.556Z,72.36
2022-10-19T19:55:38.886Z,71.52
2022-10-19T19:58:42.788Z,70.92
2022-10-19T20:01:45.624Z,71.04
2022-10-19T20:04:48.625Z,71.23
2022-10-19T20:07:51.686Z,71.16
2022-10-19T20:10:55.731Z,71.97
2022-10-19T20:13:59.189Z,72.15
2022-10-19T20:17:01.896Z,72.36
2022-10-19T20:20:05.325Z,71.68
2022-10-19T20:23:08.062Z,71.95
2022-10-19T20:26:16.944Z,71.31
2022-10-19T20:29:20.225Z,71.85
2022-10-19T20:32:22.890Z,70.71
2022-10-19T20:35:25.452Z,71.63
2022-10-19T20:38:28.124Z,70.92
2022-10-19T20:41:32.080Z,71.23
2022-10-19T20:44:34.861Z,71.57
2022-10-19T20:47:37.561Z,71.03
2022-10-19T20:50:40.494Z,71.86
2022-10-19T20:53:43.725Z,72.31
2022-10-19T20:56:48.072Z,71.81
2022-10-19T20:59:50.829Z,72.61
2022-10-19T21:02:53.792Z,72.36
2022-10-19T21:05:56.460Z,72.65
2022-10-19T21:08:59.944Z,73.07
2022-10-19T21:12:04.033Z,72.77
2022-10-19T21:15:07.562Z,73.20
2022-10-19T21:18:10.202Z,72.65
2022-10-19T21:21:16.406Z,73.38
2022-10-19T21:24:21.013Z,72.52
2022-10-19T21:27:25.023Z,72.72
2022-10-19T21:30:28.112Z,72.60
2022-10-19T21:33:30.795Z,72.17
2022-10-19T21:36:33.651Z,73.05
2022-10-19T21:39:36.476Z,72.83
2022-10-19T21:42:40.482Z,73.43
2022-10-19T21:45:43.118Z,72.82
2022-10-19T21:48:46.243Z,72.86
2022-10-19T21:51:50.939Z,72.27
2022-10-19T21:54:54.544Z,71.65
2022-10-19T21:57:58.674Z,72.15
2022-10-19T22:01:05.232Z,71.82
2022-10-19T22:04:10.610Z,71.40
2022-10-19T22:07:13.228Z,71.72
2022-10-19T22:10:15.969Z,71.80
2022-10-19T22:13:19.885Z,71.92
2022-10-19T22:16:23.604Z,71.92
2022-10-19T22:19:26.505Z,72.08
2022-10-19T22:22:29.205Z,72.05
2022-10-19T22:25:32.376Z,71.28
2022-10-19T22:28:36.431Z,71.64
2022-10-19T22:31:39.407Z,71.60
2022-10-19T22:34:41.981Z,71.33
2022-10-19T22:37:44.712Z,71.84
2022-10-19T22:40:47.414Z,71.27
2022-10-19T22:43:51.391Z,71.97
2022-10-19T22:46:54.156Z,71.35
2022-10-19T22:49:56.757Z,71.98
2022-10-19T22:52:59.383Z,71.98
2022-10-19T22:56:02.333Z,71.55
2022-10-19T22:59:08.024Z,72.00
2022-10-19T23:02:10.988Z,71.87
2022-10-19T23:05:13.800Z,71.88
2022-10-19T23:08:16.576Z,71.81
2022-10-19T23:11:19.303Z,71.30
2022-10-19T23:14:23.544Z,71.03
2022-10-19T23:17:26.212Z,71.49
2022-10-19T23:20:29.158Z,71.95
2022-10-19T23:23:33.141Z,71.89
2022-10-19T23:26:35.846Z,71.49
2022-10-19T23:29:40.341Z,72.54
2022-10-19T23:32:43.105Z,72.49
2022-10-19T23:35:45.858Z,71.93
2022-10-19T23:38:50.166Z,72.96
2022-10-19T23:41:52.951Z,73.19
2022-10-19T23:44:57.078Z,72.91
2022-10-19T23:47:59.918Z,72.56
2022-10-19T23:51:04.922Z,72.76
2022-10-19T23:54:07.663Z,72.58
2022-10-19T23:57:10.371Z,72.84
